sensor_id;sensor_type;location;lat;lon;timestamp;P1;durP1;ratioP1;P2;durP2;ratioP2
19863;SDS011;10094;48.820;9.226;2022-11-20T00:03:00;20.92;;;11.45;;
19863;SDS011;10094;48.820;9.226;2022-11-20T00:09:43;18.50;;;13.02;;
19863;SDS011;10094;48.820;9.226;2022-11-20T00:16:28;18.08;;;11.75;;
19863;SDS011;10094;48.820;9.226;2022-11-20T00:23:12;15.65;;;11.23;;
19863;SDS011;10094;48.820;9.226;2022-11-20T00:29:55;15.70;;;10.45;;
19863;SDS011;10094;48.820;9.226;2022-11-20T00:36:37;14.77;;;10.80;;
19863;SDS011;10094;48.820;9.226;2022-11-20T00:43:19;15.13;;;11.40;;
19863;SDS011;10094;48.820;9.226;2022-11-20T00:50:02;19.58;;;11.95;;
19863;SDS011;10094;48.820;9.226;2022-11-20T00:56:44;18.77;;;13.30;;
19863;SDS011;10094;48.820;9.226;2022-11-20T01:03:27;15.00;;;10.88;;
19863;SDS011;10094;48.820;9.226;2022-11-20T01:10:12;13.15;;;10.10;;
19863;SDS011;10094;48.820;9.226;2022-11-20T01:16:54;13.57;;;10.48;;
19863;SDS011;10094;48.820;9.226;2022-11-20T01:23:38;15.82;;;10.45;;
19863;SDS011;10094;48.820;9.226;2022-11-20T01:30:21;15.18;;;10.88;;
19863;SDS011;10094;48.820;9.226;2022-11-20T01:37:03;16.48;;;10.63;;
19863;SDS011;10094;48.820;9.226;2022-11-20T01:43:46;16.00;;;10.93;;
19863;SDS011;10094;48.820;9.226;2022-11-20T01:50:28;14.02;;;10.38;;
19863;SDS011;10094;48.820;9.226;2022-11-20T01:57:11;12.35;;;9.43;;
19863;SDS011;10094;48.820;9.226;2022-11-20T02:03:55;15.88;;;11.30;;
19863;SDS011;10094;48.820;9.226;2022-11-20T02:10:38;15.55;;;11.25;;
19863;SDS011;10094;48.820;9.226;2022-11-20T02:17:20;16.65;;;10.63;;
19863;SDS011;10094;48.820;9.226;2022-11-20T02:30:54;21.02;;;13.25;;
19863;SDS011;10094;48.820;9.226;2022-11-20T02:37:37;19.38;;;12.38;;
19863;SDS011;10094;48.820;9.226;2022-11-20T02:44:21;14.90;;;9.93;;
19863;SDS011;10094;48.820;9.226;2022-11-20T02:51:04;14.63;;;10.10;;
19863;SDS011;10094;48.820;9.226;2022-11-20T02:57:46;12.20;;;8.60;;
19863;SDS011;10094;48.820;9.226;2022-11-20T03:04:29;6.18;;;5.05;;
19863;SDS011;10094;48.820;9.226;2022-11-20T03:11:11;3.72;;;2.97;;
19863;SDS011;10094;48.820;9.226;2022-11-20T03:17:54;4.68;;;3.00;;
19863;SDS011;10094;48.820;9.226;2022-11-20T03:24:37;3.83;;;3.20;;
19863;SDS011;10094;48.820;9.226;2022-11-20T03:31:23;3.22;;;2.75;;
19863;SDS011;10094;48.820;9.226;2022-11-20T03:38:10;4.10;;;3.13;;
19863;SDS011;10094;48.820;9.226;2022-11-20T03:44:52;3.33;;;2.97;;
19863;SDS011;10094;48.820;9.226;2022-11-20T03:51:35;5.78;;;3.25;;
19863;SDS011;10094;48.820;9.226;2022-11-20T03:58:18;4.10;;;3.05;;
19863;SDS011;10094;48.820;9.226;2022-11-20T04:05:00;4.53;;;3.08;;
19863;SDS011;10094;48.820;9.226;2022-11-20T04:11:42;6.43;;;3.33;;
19863;SDS011;10094;48.820;9.226;2022-11-20T04:18:25;4.70;;;3.05;;
19863;SDS011;10094;48.820;9.226;2022-11-20T04:25:07;6.88;;;3.42;;
19863;SDS011;10094;48.820;9.226;2022-11-20T04:31:50;4.55;;;3.42;;
19863;SDS011;10094;48.820;9.226;2022-11-20T04:38:32;4.10;;;3.00;;
19863;SDS011;10094;48.820;9.226;2022-11-20T04:45:15;4.25;;;3.08;;
19863;SDS011;10094;48.820;9.226;2022-11-20T04:51:57;5.15;;;3.65;;
19863;SDS011;10094;48.820;9.226;2022-11-20T04:58:40;4.38;;;2.72;;
19863;SDS011;10094;48.820;9.226;2022-11-20T05:05:23;4.78;;;3.28;;
19863;SDS011;10094;48.820;9.226;2022-11-20T05:12:06;3.17;;;2.85;;
19863;SDS011;10094;48.820;9.226;2022-11-20T05:18:50;5.03;;;3.38;;
19863;SDS011;10094;48.820;9.226;2022-11-20T05:25:33;5.57;;;3.20;;
19863;SDS011;10094;48.820;9.226;2022-11-20T05:32:16;3.33;;;2.97;;
19863;SDS011;10094;48.820;9.226;2022-11-20T05:38:58;3.40;;;3.10;;
19863;SDS011;10094;48.820;9.226;2022-11-20T05:45:42;4.63;;;3.30;;
19863;SDS011;10094;48.820;9.226;2022-11-20T05:52:33;3.95;;;3.30;;
19863;SDS011;10094;48.820;9.226;2022-11-20T05:59:15;3.72;;;3.35;;
19863;SDS011;10094;48.820;9.226;2022-11-20T06:06:01;3.53;;;3.00;;
19863;SDS011;10094;48.820;9.226;2022-11-20T06:12:44;3.53;;;2.90;;
19863;SDS011;10094;48.820;9.226;2022-11-20T06:19:27;3.30;;;3.00;;
19863;SDS011;10094;48.820;9.226;2022-11-20T06:26:10;4.47;;;3.25;;
19863;SDS011;10094;48.820;9.226;2022-11-20T06:32:57;2.90;;;2.50;;
19863;SDS011;10094;48.820;9.226;2022-11-20T06:39:39;4.03;;;2.65;;
19863;SDS011;10094;48.820;9.226;2022-11-20T06:46:22;3.05;;;2.75;;
19863;SDS011;10094;48.820;9.226;2022-11-20T06:53:04;3.83;;;2.80;;
19863;SDS011;10094;48.820;9.226;2022-11-20T06:59:47;2.42;;;2.13;;
19863;SDS011;10094;48.820;9.226;2022-11-20T07:06:29;4.15;;;2.47;;
19863;SDS011;10094;48.820;9.226;2022-11-20T07:13:12;3.10;;;2.70;;
19863;SDS011;10094;48.820;9.226;2022-11-20T07:19:54;3.35;;;2.53;;
19863;SDS011;10094;48.820;9.226;2022-11-20T07:26:36;6.75;;;4.22;;
19863;SDS011;10094;48.820;9.226;2022-11-20T07:33:19;3.03;;;2.40;;
19863;SDS011;10094;48.820;9.226;2022-11-20T07:40:02;4.82;;;2.30;;
19863;SDS011;10094;48.820;9.226;2022-11-20T07:46:45;3.45;;;2.53;;
19863;SDS011;10094;48.820;9.226;2022-11-20T07:53:27;4.40;;;2.42;;
19863;SDS011;10094;48.820;9.226;2022-11-20T08:00:10;3.17;;;2.38;;
19863;SDS011;10094;48.820;9.226;2022-11-20T08:06:53;2.85;;;2.47;;
19863;SDS011;10094;48.820;9.226;2022-11-20T08:13:35;2.78;;;2.30;;
19863;SDS011;10094;48.820;9.226;2022-11-20T08:20:36;2.72;;;2.47;;
19863;SDS011;10094;48.820;9.226;2022-11-20T08:27:19;2.17;;;1.98;;
19863;SDS011;10094;48.820;9.226;2022-11-20T08:34:05;2.55;;;1.88;;
19863;SDS011;10094;48.820;9.226;2022-11-20T08:40:50;2.40;;;2.10;;
19863;SDS011;10094;48.820;9.226;2022-11-20T08:47:51;2.40;;;1.80;;
19863;SDS011;10094;48.820;9.226;2022-11-20T08:54:34;3.35;;;1.67;;
19863;SDS011;10094;48.820;9.226;2022-11-20T09:01:16;2.55;;;2.00;;
19863;SDS011;10094;48.820;9.226;2022-11-20T09:07:59;1.80;;;1.40;;
19863;SDS011;10094;48.820;9.226;2022-11-20T09:14:41;1.58;;;1.40;;
19863;SDS011;10094;48.820;9.226;2022-11-20T09:21:24;2.20;;;1.20;;
19863;SDS011;10094;48.820;9.226;2022-11-20T09:28:06;1.20;;;1.10;;
19863;SDS011;10094;48.820;9.226;2022-11-20T09:34:49;1.10;;;1.00;;
19863;SDS011;10094;48.820;9.226;2022-11-20T09:41:53;1.10;;;1.00;;
19863;SDS011;10094;48.820;9.226;2022-11-20T09:55:48;1.30;;;1.05;;
19863;SDS011;10094;48.820;9.226;2022-11-20T10:09:47;3.15;;;1.50;;
19863;SDS011;10094;48.820;9.226;2022-11-20T10:24:24;4.55;;;3.80;;
19863;SDS011;10094;48.820;9.226;2022-11-20T10:30:57;3.33;;;2.60;;
19863;SDS011;10094;48.820;9.226;2022-11-20T10:37:44;3.70;;;1.38;;
19863;SDS011;10094;48.820;9.226;2022-11-20T10:44:30;2.65;;;1.20;;
19863;SDS011;10094;48.820;9.226;2022-11-20T10:51:39;1.40;;;1.30;;
19863;SDS011;10094;48.820;9.226;2022-11-20T10:58:34;2.15;;;1.40;;
19863;SDS011;10094;48.820;9.226;2022-11-20T11:05:39;1.70;;;1.40;;
19863;SDS011;10094;48.820;9.226;2022-11-20T11:12:28;1.95;;;1.70;;
19863;SDS011;10094;48.820;9.226;2022-11-20T11:19:14;2.50;;;1.20;;
19863;SDS011;10094;48.820;9.226;2022-11-20T11:25:57;1.40;;;1.30;;
19863;SDS011;10094;48.820;9.226;2022-11-20T11:32:41;1.60;;;1.33;;
19863;SDS011;10094;48.820;9.226;2022-11-20T11:39:27;2.30;;;1.50;;
19863;SDS011;10094;48.820;9.226;2022-11-20T11:46:22;1.45;;;1.35;;
19863;SDS011;10094;48.820;9.226;2022-11-20T11:53:14;2.95;;;1.95;;
19863;SDS011;10094;48.820;9.226;2022-11-20T12:00:05;3.33;;;1.77;;
19863;SDS011;10094;48.820;9.226;2022-11-20T12:06:53;5.80;;;2.47;;
19863;SDS011;10094;48.820;9.226;2022-11-20T12:14:04;2.55;;;1.95;;
19863;SDS011;10094;48.820;9.226;2022-11-20T12:49:08;3.20;;;1.60;;
19863;SDS011;10094;48.820;9.226;2022-11-20T13:03:39;4.93;;;1.25;;
19863;SDS011;10094;48.820;9.226;2022-11-20T13:10:43;2.22;;;1.40;;
19863;SDS011;10094;48.820;9.226;2022-11-20T13:17:41;2.88;;;1.70;;
19863;SDS011;10094;48.820;9.226;2022-11-20T13:24:29;2.40;;;1.50;;
19863;SDS011;10094;48.820;9.226;2022-11-20T13:31:30;2.40;;;1.20;;
19863;SDS011;10094;48.820;9.226;2022-11-20T13:38:17;3.45;;;1.80;;
19863;SDS011;10094;48.820;9.226;2022-11-20T13:45:07;2.70;;;1.20;;
19863;SDS011;10094;48.820;9.226;2022-11-20T14:06:02;1.27;;;1.10;;
19863;SDS011;10094;48.820;9.226;2022-11-20T14:12:47;3.22;;;1.20;;
19863;SDS011;10094;48.820;9.226;2022-11-20T14:19:30;1.90;;;1.05;;
19863;SDS011;10094;48.820;9.226;2022-11-20T14:26:14;1.67;;;1.30;;
19863;SDS011;10094;48.820;9.226;2022-11-20T14:33:02;3.80;;;1.33;;
19863;SDS011;10094;48.820;9.226;2022-11-20T14:39:50;3.17;;;1.48;;
19863;SDS011;10094;48.820;9.226;2022-11-20T14:46:34;2.03;;;1.52;;
19863;SDS011;10094;48.820;9.226;2022-11-20T14:53:21;2.20;;;1.55;;
19863;SDS011;10094;48.820;9.226;2022-11-20T15:06:58;4.97;;;2.00;;
19863;SDS011;10094;48.820;9.226;2022-11-20T15:13:41;2.15;;;1.73;;
19863;SDS011;10094;48.820;9.226;2022-11-20T15:20:25;2.17;;;1.70;;
19863;SDS011;10094;48.820;9.226;2022-11-20T15:27:10;2.55;;;1.60;;
19863;SDS011;10094;48.820;9.226;2022-11-20T15:33:53;2.60;;;1.80;;
19863;SDS011;10094;48.820;9.226;2022-11-20T15:40:35;5.65;;;2.70;;
19863;SDS011;10094;48.820;9.226;2022-11-20T15:47:19;3.83;;;1.90;;
19863;SDS011;10094;48.820;9.226;2022-11-20T15:54:17;2.28;;;1.60;;
19863;SDS011;10094;48.820;9.226;2022-11-20T16:01:02;2.78;;;1.60;;
19863;SDS011;10094;48.820;9.226;2022-11-20T16:07:45;2.25;;;2.00;;
19863;SDS011;10094;48.820;9.226;2022-11-20T16:14:27;2.53;;;2.28;;
19863;SDS011;10094;48.820;9.226;2022-11-20T16:21:28;2.83;;;2.20;;
19863;SDS011;10094;48.820;9.226;2022-11-20T16:28:14;3.28;;;2.03;;
19863;SDS011;10094;48.820;9.226;2022-11-20T16:35:00;3.00;;;2.03;;
19863;SDS011;10094;48.820;9.226;2022-11-20T16:41:43;4.18;;;2.20;;
19863;SDS011;10094;48.820;9.226;2022-11-20T16:48:25;5.18;;;2.25;;
19863;SDS011;10094;48.820;9.226;2022-11-20T16:55:08;3.13;;;2.40;;
19863;SDS011;10094;48.820;9.226;2022-11-20T17:01:51;2.20;;;2.00;;
19863;SDS011;10094;48.820;9.226;2022-11-20T17:08:33;4.13;;;1.92;;
19863;SDS011;10094;48.820;9.226;2022-11-20T17:15:16;5.10;;;2.30;;
19863;SDS011;10094;48.820;9.226;2022-11-20T17:21:59;3.05;;;2.17;;
19863;SDS011;10094;48.820;9.226;2022-11-20T17:28:42;5.25;;;2.58;;
19863;SDS011;10094;48.820;9.226;2022-11-20T17:35:28;4.60;;;2.70;;
19863;SDS011;10094;48.820;9.226;2022-11-20T17:42:11;6.60;;;2.97;;
19863;SDS011;10094;48.820;9.226;2022-11-20T17:49:10;4.55;;;2.35;;
19863;SDS011;10094;48.820;9.226;2022-11-20T17:55:55;4.97;;;3.17;;
19863;SDS011;10094;48.820;9.226;2022-11-20T18:02:57;4.97;;;2.90;;
19863;SDS011;10094;48.820;9.226;2022-11-20T18:09:39;2.72;;;2.33;;
19863;SDS011;10094;48.820;9.226;2022-11-20T18:16:22;5.80;;;2.47;;
19863;SDS011;10094;48.820;9.226;2022-11-20T18:23:05;3.92;;;2.33;;
19863;SDS011;10094;48.820;9.226;2022-11-20T18:29:47;4.15;;;2.58;;
19863;SDS011;10094;48.820;9.226;2022-11-20T18:36:33;4.32;;;2.15;;
19863;SDS011;10094;48.820;9.226;2022-11-20T18:43:15;5.25;;;2.55;;
19863;SDS011;10094;48.820;9.226;2022-11-20T18:50:16;5.05;;;2.58;;
19863;SDS011;10094;48.820;9.226;2022-11-20T18:57:00;3.83;;;2.42;;
19863;SDS011;10094;48.820;9.226;2022-11-20T19:03:42;3.35;;;1.77;;
19863;SDS011;10094;48.820;9.226;2022-11-20T19:10:24;1.98;;;1.35;;
19863;SDS011;10094;48.820;9.226;2022-11-20T19:17:10;2.55;;;1.60;;
19863;SDS011;10094;48.820;9.226;2022-11-20T19:23:55;3.20;;;1.80;;
19863;SDS011;10094;48.820;9.226;2022-11-20T19:30:39;2.80;;;2.20;;
19863;SDS011;10094;48.820;9.226;2022-11-20T19:37:22;1.90;;;1.50;;
19863;SDS011;10094;48.820;9.226;2022-11-20T19:44:07;3.88;;;2.08;;
19863;SDS011;10094;48.820;9.226;2022-11-20T19:50:53;2.17;;;1.50;;
19863;SDS011;10094;48.820;9.226;2022-11-20T19:57:35;3.42;;;1.95;;
19863;SDS011;10094;48.820;9.226;2022-11-20T20:04:18;1.90;;;1.17;;
19863;SDS011;10094;48.820;9.226;2022-11-20T20:11:08;0.98;;;0.98;;
19863;SDS011;10094;48.820;9.226;2022-11-20T20:17:58;1.33;;;1.00;;
19863;SDS011;10094;48.820;9.226;2022-11-20T20:24:41;0.90;;;0.80;;
19863;SDS011;10094;48.820;9.226;2022-11-20T20:31:24;1.10;;;1.00;;
19863;SDS011;10094;48.820;9.226;2022-11-20T20:38:08;0.90;;;0.90;;
19863;SDS011;10094;48.820;9.226;2022-11-20T20:44:50;1.88;;;0.95;;
19863;SDS011;10094;48.820;9.226;2022-11-20T20:51:48;1.02;;;0.85;;
19863;SDS011;10094;48.820;9.226;2022-11-20T20:58:30;0.80;;;0.80;;
19863;SDS011;10094;48.820;9.226;2022-11-20T21:05:15;0.82;;;0.82;;
19863;SDS011;10094;48.820;9.226;2022-11-20T21:11:57;0.80;;;0.80;;
19863;SDS011;10094;48.820;9.226;2022-11-20T21:18:40;0.95;;;0.85;;
19863;SDS011;10094;48.820;9.226;2022-11-20T21:25:23;2.15;;;1.20;;
19863;SDS011;10094;48.820;9.226;2022-11-20T21:32:05;1.23;;;0.70;;
19863;SDS011;10094;48.820;9.226;2022-11-20T21:38:49;0.80;;;0.80;;
19863;SDS011;10094;48.820;9.226;2022-11-20T21:45:32;0.52;;;0.52;;
19863;SDS011;10094;48.820;9.226;2022-11-20T21:52:15;1.60;;;1.00;;
19863;SDS011;10094;48.820;9.226;2022-11-20T21:58:57;1.77;;;1.10;;
19863;SDS011;10094;48.820;9.226;2022-11-20T22:05:40;1.10;;;1.00;;
19863;SDS011;10094;48.820;9.226;2022-11-20T22:12:22;1.02;;;0.90;;
19863;SDS011;10094;48.820;9.226;2022-11-20T22:19:06;1.23;;;0.98;;
19863;SDS011;10094;48.820;9.226;2022-11-20T22:25:48;0.95;;;0.80;;
19863;SDS011;10094;48.820;9.226;2022-11-20T22:32:31;2.20;;;1.13;;
19863;SDS011;10094;48.820;9.226;2022-11-20T22:39:13;2.60;;;0.90;;
19863;SDS011;10094;48.820;9.226;2022-11-20T22:52:48;1.08;;;0.98;;
19863;SDS011;10094;48.820;9.226;2022-11-20T22:59:31;2.00;;;1.10;;
19863;SDS011;10094;48.820;9.226;2022-11-20T23:06:13;2.28;;;1.00;;
19863;SDS011;10094;48.820;9.226;2022-11-20T23:12:57;1.08;;;0.90;;
19863;SDS011;10094;48.820;9.226;2022-11-20T23:19:39;1.30;;;0.88;;
19863;SDS011;10094;48.820;9.226;2022-11-20T23:26:23;0.88;;;0.85;;
19863;SDS011;10094;48.820;9.226;2022-11-20T23:33:07;1.02;;;0.82;;
19863;SDS011;10094;48.820;9.226;2022-11-20T23:39:49;2.92;;;1.25;;
19863;SDS011;10094;48.820;9.226;2022-11-20T23:46:32;0.80;;;0.80;;
19863;SDS011;10094;48.820;9.226;2022-11-20T23:53:15;0.82;;;0.65;;
19863;SDS011;10094;48.820;9.226;2022-11-20T23:59:57;1.05;;;0.75;;
